sensor_id;sensor_type;location;lat;lon;timestamp;P1;durP1;ratioP1;P2;durP2;ratioP2
85646;SDS011;76070;51.580;4.342;2024-01-27T00:01:15;13.55;;;3.10;;
85646;SDS011;76070;51.580;4.342;2024-01-27T00:03:41;15.88;;;2.95;;
85646;SDS011;76070;51.580;4.342;2024-01-27T00:06:07;7.08;;;3.45;;
85646;SDS011;76070;51.580;4.342;2024-01-27T00:08:34;13.98;;;3.87;;
85646;SDS011;76070;51.580;4.342;2024-01-27T00:11:00;14.03;;;4.37;;
85646;SDS011;76070;51.580;4.342;2024-01-27T00:13:27;14.50;;;3.35;;
85646;SDS011;76070;51.580;4.342;2024-01-27T00:15:53;9.55;;;3.50;;
85646;SDS011;76070;51.580;4.342;2024-01-27T00:18:20;21.20;;;4.53;;
85646;SDS011;76070;51.580;4.342;2024-01-27T00:20:46;29.90;;;4.22;;
85646;SDS011;76070;51.580;4.342;2024-01-27T00:23:13;16.30;;;4.10;;
85646;SDS011;76070;51.580;4.342;2024-01-27T00:25:39;10.45;;;3.17;;
85646;SDS011;76070;51.580;4.342;2024-01-27T00:28:06;15.18;;;4.40;;
85646;SDS011;76070;51.580;4.342;2024-01-27T00:30:32;24.43;;;5.92;;
85646;SDS011;76070;51.580;4.342;2024-01-27T00:32:59;20.55;;;4.00;;
85646;SDS011;76070;51.580;4.342;2024-01-27T00:35:25;21.30;;;4.55;;
85646;SDS011;76070;51.580;4.342;2024-01-27T00:37:52;16.77;;;3.58;;
85646;SDS011;76070;51.580;4.342;2024-01-27T00:40:18;13.15;;;3.70;;
85646;SDS011;76070;51.580;4.342;2024-01-27T00:42:45;9.73;;;3.77;;
85646;SDS011;76070;51.580;4.342;2024-01-27T00:45:11;8.10;;;4.03;;
85646;SDS011;76070;51.580;4.342;2024-01-27T00:47:38;15.15;;;3.35;;
85646;SDS011;76070;51.580;4.342;2024-01-27T00:50:04;11.83;;;3.87;;
85646;SDS011;76070;51.580;4.342;2024-01-27T00:52:31;22.22;;;4.95;;
85646;SDS011;76070;51.580;4.342;2024-01-27T00:54:58;23.00;;;4.53;;
85646;SDS011;76070;51.580;4.342;2024-01-27T00:57:36;27.07;;;5.87;;
85646;SDS011;76070;51.580;4.342;2024-01-27T01:00:06;20.08;;;5.67;;
85646;SDS011;76070;51.580;4.342;2024-01-27T01:02:32;24.65;;;5.97;;
85646;SDS011;76070;51.580;4.342;2024-01-27T01:04:59;19.23;;;5.87;;
85646;SDS011;76070;51.580;4.342;2024-01-27T01:07:25;21.17;;;5.62;;
85646;SDS011;76070;51.580;4.342;2024-01-27T01:09:52;12.98;;;5.42;;
85646;SDS011;76070;51.580;4.342;2024-01-27T01:12:18;18.48;;;6.10;;
85646;SDS011;76070;51.580;4.342;2024-01-27T01:14:45;26.07;;;5.60;;
85646;SDS011;76070;51.580;4.342;2024-01-27T01:17:11;24.70;;;4.95;;
85646;SDS011;76070;51.580;4.342;2024-01-27T01:19:39;15.68;;;5.87;;
85646;SDS011;76070;51.580;4.342;2024-01-27T01:22:06;16.60;;;5.08;;
85646;SDS011;76070;51.580;4.342;2024-01-27T01:24:33;25.43;;;4.70;;
85646;SDS011;76070;51.580;4.342;2024-01-27T01:26:59;19.65;;;6.60;;
85646;SDS011;76070;51.580;4.342;2024-01-27T01:29:26;18.45;;;5.47;;
85646;SDS011;76070;51.580;4.342;2024-01-27T01:34:55;16.48;;;5.25;;
85646;SDS011;76070;51.580;4.342;2024-01-27T01:37:22;14.75;;;5.53;;
85646;SDS011;76070;51.580;4.342;2024-01-27T01:39:48;20.32;;;5.97;;
85646;SDS011;76070;51.580;4.342;2024-01-27T01:42:15;20.72;;;5.47;;
85646;SDS011;76070;51.580;4.342;2024-01-27T01:44:41;22.27;;;6.00;;
85646;SDS011;76070;51.580;4.342;2024-01-27T01:47:08;23.85;;;7.25;;
85646;SDS011;76070;51.580;4.342;2024-01-27T01:49:34;17.12;;;5.87;;
85646;SDS011;76070;51.580;4.342;2024-01-27T01:52:01;11.73;;;5.22;;
85646;SDS011;76070;51.580;4.342;2024-01-27T01:59:56;12.80;;;5.60;;
85646;SDS011;76070;51.580;4.342;2024-01-27T02:02:23;15.58;;;6.47;;
85646;SDS011;76070;51.580;4.342;2024-01-27T02:04:49;21.07;;;5.33;;
85646;SDS011;76070;51.580;4.342;2024-01-27T02:07:16;15.53;;;6.25;;
85646;SDS011;76070;51.580;4.342;2024-01-27T02:09:42;15.32;;;6.25;;
85646;SDS011;76070;51.580;4.342;2024-01-27T02:12:09;18.07;;;6.55;;
85646;SDS011;76070;51.580;4.342;2024-01-27T02:14:36;18.37;;;6.33;;
85646;SDS011;76070;51.580;4.342;2024-01-27T02:17:05;17.42;;;6.20;;
85646;SDS011;76070;51.580;4.342;2024-01-27T02:19:31;19.32;;;7.67;;
85646;SDS011;76070;51.580;4.342;2024-01-27T02:21:58;14.80;;;5.53;;
85646;SDS011;76070;51.580;4.342;2024-01-27T02:24:24;17.10;;;5.67;;
85646;SDS011;76070;51.580;4.342;2024-01-27T02:26:53;13.50;;;5.95;;
85646;SDS011;76070;51.580;4.342;2024-01-27T02:29:19;18.82;;;7.10;;
85646;SDS011;76070;51.580;4.342;2024-01-27T02:31:45;14.63;;;5.80;;
85646;SDS011;76070;51.580;4.342;2024-01-27T02:34:12;25.23;;;6.83;;
85646;SDS011;76070;51.580;4.342;2024-01-27T02:36:38;19.85;;;6.55;;
85646;SDS011;76070;51.580;4.342;2024-01-27T02:39:05;26.62;;;7.30;;
85646;SDS011;76070;51.580;4.342;2024-01-27T02:41:31;20.45;;;6.65;;
85646;SDS011;76070;51.580;4.342;2024-01-27T02:49:28;12.13;;;6.15;;
85646;SDS011;76070;51.580;4.342;2024-01-27T02:51:54;17.90;;;7.72;;
85646;SDS011;76070;51.580;4.342;2024-01-27T02:54:20;22.82;;;7.62;;
85646;SDS011;76070;51.580;4.342;2024-01-27T02:56:47;19.50;;;6.75;;
85646;SDS011;76070;51.580;4.342;2024-01-27T02:59:14;17.90;;;8.48;;
85646;SDS011;76070;51.580;4.342;2024-01-27T03:01:40;31.33;;;8.38;;
85646;SDS011;76070;51.580;4.342;2024-01-27T03:04:07;24.02;;;7.92;;
85646;SDS011;76070;51.580;4.342;2024-01-27T03:06:33;23.30;;;8.23;;
85646;SDS011;76070;51.580;4.342;2024-01-27T03:09:00;25.10;;;7.50;;
85646;SDS011;76070;51.580;4.342;2024-01-27T03:11:26;21.15;;;6.80;;
85646;SDS011;76070;51.580;4.342;2024-01-27T03:13:52;13.95;;;7.15;;
85646;SDS011;76070;51.580;4.342;2024-01-27T03:16:19;18.73;;;7.05;;
85646;SDS011;76070;51.580;4.342;2024-01-27T03:18:45;21.93;;;7.75;;
85646;SDS011;76070;51.580;4.342;2024-01-27T03:21:12;20.65;;;8.48;;
85646;SDS011;76070;51.580;4.342;2024-01-27T03:23:38;30.15;;;8.65;;
85646;SDS011;76070;51.580;4.342;2024-01-27T03:26:08;15.23;;;7.75;;
85646;SDS011;76070;51.580;4.342;2024-01-27T03:34:03;15.88;;;6.60;;
85646;SDS011;76070;51.580;4.342;2024-01-27T03:36:29;18.52;;;8.28;;
85646;SDS011;76070;51.580;4.342;2024-01-27T03:38:56;21.00;;;8.68;;
85646;SDS011;76070;51.580;4.342;2024-01-27T03:41:23;28.70;;;8.23;;
85646;SDS011;76070;51.580;4.342;2024-01-27T03:43:50;20.92;;;8.15;;
85646;SDS011;76070;51.580;4.342;2024-01-27T03:46:16;23.73;;;9.30;;
85646;SDS011;76070;51.580;4.342;2024-01-27T03:48:42;26.65;;;9.70;;
85646;SDS011;76070;51.580;4.342;2024-01-27T03:51:09;33.05;;;9.20;;
85646;SDS011;76070;51.580;4.342;2024-01-27T03:53:36;16.07;;;7.53;;
85646;SDS011;76070;51.580;4.342;2024-01-27T03:56:02;20.05;;;7.90;;
85646;SDS011;76070;51.580;4.342;2024-01-27T03:58:30;19.05;;;9.18;;
85646;SDS011;76070;51.580;4.342;2024-01-27T04:00:57;18.40;;;8.05;;
85646;SDS011;76070;51.580;4.342;2024-01-27T04:03:23;18.57;;;7.17;;
85646;SDS011;76070;51.580;4.342;2024-01-27T04:05:50;19.42;;;7.70;;
85646;SDS011;76070;51.580;4.342;2024-01-27T04:08:16;25.32;;;8.25;;
85646;SDS011;76070;51.580;4.342;2024-01-27T04:10:43;21.85;;;10.88;;
85646;SDS011;76070;51.580;4.342;2024-01-27T04:13:09;26.27;;;9.78;;
85646;SDS011;76070;51.580;4.342;2024-01-27T04:15:35;26.42;;;9.80;;
85646;SDS011;76070;51.580;4.342;2024-01-27T04:18:05;22.02;;;8.98;;
85646;SDS011;76070;51.580;4.342;2024-01-27T04:20:33;18.60;;;8.48;;
85646;SDS011;76070;51.580;4.342;2024-01-27T04:26:03;19.85;;;8.78;;
85646;SDS011;76070;51.580;4.342;2024-01-27T04:28:31;20.95;;;10.08;;
85646;SDS011;76070;51.580;4.342;2024-01-27T04:30:58;23.07;;;9.45;;
85646;SDS011;76070;51.580;4.342;2024-01-27T04:33:42;21.75;;;8.18;;
85646;SDS011;76070;51.580;4.342;2024-01-27T04:36:10;20.80;;;8.73;;
85646;SDS011;76070;51.580;4.342;2024-01-27T04:38:36;20.55;;;8.95;;
85646;SDS011;76070;51.580;4.342;2024-01-27T04:41:03;20.10;;;7.75;;
85646;SDS011;76070;51.580;4.342;2024-01-27T04:43:29;17.85;;;7.40;;
85646;SDS011;76070;51.580;4.342;2024-01-27T04:45:56;17.42;;;8.48;;
85646;SDS011;76070;51.580;4.342;2024-01-27T04:48:22;21.40;;;8.20;;
85646;SDS011;76070;51.580;4.342;2024-01-27T04:50:48;17.15;;;7.80;;
85646;SDS011;76070;51.580;4.342;2024-01-27T04:53:16;24.90;;;9.50;;
85646;SDS011;76070;51.580;4.342;2024-01-27T04:55:42;18.95;;;9.00;;
85646;SDS011;76070;51.580;4.342;2024-01-27T04:58:09;20.92;;;9.33;;
85646;SDS011;76070;51.580;4.342;2024-01-27T05:00:35;15.15;;;9.13;;
85646;SDS011;76070;51.580;4.342;2024-01-27T05:03:02;20.45;;;10.05;;
85646;SDS011;76070;51.580;4.342;2024-01-27T05:05:29;23.35;;;8.80;;
85646;SDS011;76070;51.580;4.342;2024-01-27T05:07:56;31.82;;;10.60;;
85646;SDS011;76070;51.580;4.342;2024-01-27T05:10:22;25.25;;;10.93;;
85646;SDS011;76070;51.580;4.342;2024-01-27T05:12:50;24.30;;;9.95;;
85646;SDS011;76070;51.580;4.342;2024-01-27T05:18:07;21.10;;;9.95;;
85646;SDS011;76070;51.580;4.342;2024-01-27T05:20:50;15.05;;;9.20;;
85646;SDS011;76070;51.580;4.342;2024-01-27T05:23:17;29.90;;;11.38;;
85646;SDS011;76070;51.580;4.342;2024-01-27T05:25:43;27.20;;;9.50;;
85646;SDS011;76070;51.580;4.342;2024-01-27T05:28:09;18.80;;;11.05;;
85646;SDS011;76070;51.580;4.342;2024-01-27T05:30:36;30.32;;;10.32;;
85646;SDS011;76070;51.580;4.342;2024-01-27T05:33:02;19.80;;;9.05;;
85646;SDS011;76070;51.580;4.342;2024-01-27T05:35:29;19.02;;;10.18;;
85646;SDS011;76070;51.580;4.342;2024-01-27T05:40:53;27.07;;;10.98;;
85646;SDS011;76070;51.580;4.342;2024-01-27T05:43:19;23.12;;;10.40;;
85646;SDS011;76070;51.580;4.342;2024-01-27T05:45:46;24.63;;;9.95;;
85646;SDS011;76070;51.580;4.342;2024-01-27T05:48:12;21.73;;;11.48;;
85646;SDS011;76070;51.580;4.342;2024-01-27T05:50:42;22.55;;;10.48;;
85646;SDS011;76070;51.580;4.342;2024-01-27T05:53:08;22.32;;;10.55;;
85646;SDS011;76070;51.580;4.342;2024-01-27T05:55:34;26.33;;;12.13;;
85646;SDS011;76070;51.580;4.342;2024-01-27T05:58:01;24.25;;;12.03;;
85646;SDS011;76070;51.580;4.342;2024-01-27T06:00:27;22.60;;;10.45;;
85646;SDS011;76070;51.580;4.342;2024-01-27T06:02:54;26.62;;;12.45;;
85646;SDS011;76070;51.580;4.342;2024-01-27T06:05:20;28.47;;;11.45;;
85646;SDS011;76070;51.580;4.342;2024-01-27T06:07:46;23.77;;;11.10;;
85646;SDS011;76070;51.580;4.342;2024-01-27T06:10:14;28.85;;;11.20;;
85646;SDS011;76070;51.580;4.342;2024-01-27T06:12:41;20.40;;;12.58;;
85646;SDS011;76070;51.580;4.342;2024-01-27T06:15:08;26.80;;;11.55;;
85646;SDS011;76070;51.580;4.342;2024-01-27T06:17:36;31.42;;;12.58;;
85646;SDS011;76070;51.580;4.342;2024-01-27T06:20:02;20.20;;;10.95;;
85646;SDS011;76070;51.580;4.342;2024-01-27T06:22:29;23.52;;;11.85;;
85646;SDS011;76070;51.580;4.342;2024-01-27T06:24:57;31.27;;;12.58;;
85646;SDS011;76070;51.580;4.342;2024-01-27T06:27:24;31.52;;;14.70;;
85646;SDS011;76070;51.580;4.342;2024-01-27T06:29:50;28.32;;;11.70;;
85646;SDS011;76070;51.580;4.342;2024-01-27T06:32:17;27.65;;;13.13;;
85646;SDS011;76070;51.580;4.342;2024-01-27T06:34:44;32.60;;;15.43;;
85646;SDS011;76070;51.580;4.342;2024-01-27T06:37:10;32.20;;;12.55;;
85646;SDS011;76070;51.580;4.342;2024-01-27T06:39:37;32.00;;;14.10;;
85646;SDS011;76070;51.580;4.342;2024-01-27T06:42:03;41.55;;;13.55;;
85646;SDS011;76070;51.580;4.342;2024-01-27T06:44:30;28.57;;;11.55;;
85646;SDS011;76070;51.580;4.342;2024-01-27T06:46:56;23.25;;;12.33;;
85646;SDS011;76070;51.580;4.342;2024-01-27T06:49:23;28.60;;;12.85;;
85646;SDS011;76070;51.580;4.342;2024-01-27T06:51:49;24.60;;;12.70;;
85646;SDS011;76070;51.580;4.342;2024-01-27T06:54:15;31.60;;;12.05;;
85646;SDS011;76070;51.580;4.342;2024-01-27T06:56:42;25.92;;;11.30;;
85646;SDS011;76070;51.580;4.342;2024-01-27T06:59:08;26.85;;;11.50;;
85646;SDS011;76070;51.580;4.342;2024-01-27T07:01:35;32.35;;;13.08;;
85646;SDS011;76070;51.580;4.342;2024-01-27T07:04:01;26.57;;;11.20;;
85646;SDS011;76070;51.580;4.342;2024-01-27T07:06:27;26.90;;;13.08;;
85646;SDS011;76070;51.580;4.342;2024-01-27T07:08:54;26.55;;;12.05;;
85646;SDS011;76070;51.580;4.342;2024-01-27T07:11:20;29.20;;;12.33;;
85646;SDS011;76070;51.580;4.342;2024-01-27T07:13:47;29.75;;;13.35;;
85646;SDS011;76070;51.580;4.342;2024-01-27T07:16:25;32.93;;;12.35;;
85646;SDS011;76070;51.580;4.342;2024-01-27T07:18:51;28.57;;;10.23;;
85646;SDS011;76070;51.580;4.342;2024-01-27T07:21:18;20.27;;;11.38;;
85646;SDS011;76070;51.580;4.342;2024-01-27T07:23:44;28.25;;;11.53;;
85646;SDS011;76070;51.580;4.342;2024-01-27T07:26:11;22.60;;;11.70;;
85646;SDS011;76070;51.580;4.342;2024-01-27T07:28:37;23.10;;;11.97;;
85646;SDS011;76070;51.580;4.342;2024-01-27T07:31:08;30.75;;;11.80;;
85646;SDS011;76070;51.580;4.342;2024-01-27T07:33:32;31.55;;;12.80;;
85646;SDS011;76070;51.580;4.342;2024-01-27T07:35:58;34.03;;;12.37;;
85646;SDS011;76070;51.580;4.342;2024-01-27T07:38:25;29.57;;;12.45;;
85646;SDS011;76070;51.580;4.342;2024-01-27T07:40:52;34.25;;;12.30;;
85646;SDS011;76070;51.580;4.342;2024-01-27T07:43:18;22.35;;;11.20;;
85646;SDS011;76070;51.580;4.342;2024-01-27T07:45:45;36.42;;;13.80;;
85646;SDS011;76070;51.580;4.342;2024-01-27T07:48:12;23.47;;;10.68;;
85646;SDS011;76070;51.580;4.342;2024-01-27T07:50:38;22.03;;;11.50;;
85646;SDS011;76070;51.580;4.342;2024-01-27T07:53:05;34.15;;;12.90;;
85646;SDS011;76070;51.580;4.342;2024-01-27T07:55:31;31.07;;;13.25;;
85646;SDS011;76070;51.580;4.342;2024-01-27T07:57:57;31.85;;;13.30;;
85646;SDS011;76070;51.580;4.342;2024-01-27T08:00:24;21.93;;;12.53;;
85646;SDS011;76070;51.580;4.342;2024-01-27T08:02:50;29.92;;;14.47;;
85646;SDS011;76070;51.580;4.342;2024-01-27T08:05:17;29.55;;;13.15;;
85646;SDS011;76070;51.580;4.342;2024-01-27T08:07:43;27.65;;;13.78;;
85646;SDS011;76070;51.580;4.342;2024-01-27T08:12:57;30.40;;;14.73;;
85646;SDS011;76070;51.580;4.342;2024-01-27T08:15:23;48.63;;;15.20;;
85646;SDS011;76070;51.580;4.342;2024-01-27T08:17:50;35.75;;;13.45;;
85646;SDS011;76070;51.580;4.342;2024-01-27T08:20:16;32.45;;;14.35;;
85646;SDS011;76070;51.580;4.342;2024-01-27T08:22:43;37.93;;;13.98;;
85646;SDS011;76070;51.580;4.342;2024-01-27T08:25:09;22.45;;;12.58;;
85646;SDS011;76070;51.580;4.342;2024-01-27T08:27:35;28.75;;;11.83;;
85646;SDS011;76070;51.580;4.342;2024-01-27T08:30:02;22.75;;;12.53;;
85646;SDS011;76070;51.580;4.342;2024-01-27T08:32:28;28.02;;;12.95;;
85646;SDS011;76070;51.580;4.342;2024-01-27T08:34:55;32.75;;;11.05;;
85646;SDS011;76070;51.580;4.342;2024-01-27T08:37:21;51.73;;;12.58;;
85646;SDS011;76070;51.580;4.342;2024-01-27T08:39:48;24.72;;;12.00;;
85646;SDS011;76070;51.580;4.342;2024-01-27T08:42:16;27.15;;;10.20;;
85646;SDS011;76070;51.580;4.342;2024-01-27T08:44:42;19.40;;;11.00;;
85646;SDS011;76070;51.580;4.342;2024-01-27T08:47:09;29.80;;;11.68;;
85646;SDS011;76070;51.580;4.342;2024-01-27T08:49:35;23.10;;;11.10;;
85646;SDS011;76070;51.580;4.342;2024-01-27T08:52:02;28.45;;;11.70;;
85646;SDS011;76070;51.580;4.342;2024-01-27T08:54:28;21.15;;;12.07;;
85646;SDS011;76070;51.580;4.342;2024-01-27T08:56:55;31.48;;;13.58;;
85646;SDS011;76070;51.580;4.342;2024-01-27T08:59:21;30.62;;;11.95;;
85646;SDS011;76070;51.580;4.342;2024-01-27T09:01:47;21.23;;;11.60;;
85646;SDS011;76070;51.580;4.342;2024-01-27T09:04:14;25.00;;;11.15;;
85646;SDS011;76070;51.580;4.342;2024-01-27T09:06:40;23.35;;;9.88;;
85646;SDS011;76070;51.580;4.342;2024-01-27T09:09:07;24.30;;;10.30;;
85646;SDS011;76070;51.580;4.342;2024-01-27T09:17:02;25.08;;;9.78;;
85646;SDS011;76070;51.580;4.342;2024-01-27T09:19:28;29.42;;;11.30;;
85646;SDS011;76070;51.580;4.342;2024-01-27T09:21:55;26.27;;;9.30;;
85646;SDS011;76070;51.580;4.342;2024-01-27T09:24:21;25.92;;;10.38;;
85646;SDS011;76070;51.580;4.342;2024-01-27T09:26:47;23.70;;;9.55;;
85646;SDS011;76070;51.580;4.342;2024-01-27T09:29:14;21.55;;;8.30;;
85646;SDS011;76070;51.580;4.342;2024-01-27T09:31:40;19.02;;;9.10;;
85646;SDS011;76070;51.580;4.342;2024-01-27T09:34:07;21.25;;;10.45;;
85646;SDS011;76070;51.580;4.342;2024-01-27T09:36:33;31.45;;;11.30;;
85646;SDS011;76070;51.580;4.342;2024-01-27T09:39:00;20.10;;;10.90;;
85646;SDS011;76070;51.580;4.342;2024-01-27T09:41:30;23.57;;;10.15;;
85646;SDS011;76070;51.580;4.342;2024-01-27T09:43:57;19.23;;;8.55;;
85646;SDS011;76070;51.580;4.342;2024-01-27T09:46:24;18.67;;;9.33;;
85646;SDS011;76070;51.580;4.342;2024-01-27T09:48:51;30.20;;;10.55;;
85646;SDS011;76070;51.580;4.342;2024-01-27T09:51:19;20.32;;;8.55;;
85646;SDS011;76070;51.580;4.342;2024-01-27T09:53:45;25.82;;;10.15;;
85646;SDS011;76070;51.580;4.342;2024-01-27T09:56:12;20.52;;;10.08;;
85646;SDS011;76070;51.580;4.342;2024-01-27T09:58:43;28.40;;;10.50;;
85646;SDS011;76070;51.580;4.342;2024-01-27T10:01:16;24.25;;;9.33;;
85646;SDS011;76070;51.580;4.342;2024-01-27T10:03:46;22.13;;;8.55;;
85646;SDS011;76070;51.580;4.342;2024-01-27T10:06:13;22.87;;;9.53;;
85646;SDS011;76070;51.580;4.342;2024-01-27T10:08:40;19.07;;;8.48;;
85646;SDS011;76070;51.580;4.342;2024-01-27T10:11:07;26.75;;;9.68;;
85646;SDS011;76070;51.580;4.342;2024-01-27T10:13:34;24.72;;;8.25;;
85646;SDS011;76070;51.580;4.342;2024-01-27T10:16:06;21.77;;;8.38;;
85646;SDS011;76070;51.580;4.342;2024-01-27T10:18:34;29.50;;;9.18;;
85646;SDS011;76070;51.580;4.342;2024-01-27T10:21:22;20.52;;;9.10;;
85646;SDS011;76070;51.580;4.342;2024-01-27T10:23:29;21.48;;;9.08;;
85646;SDS011;76070;51.580;4.342;2024-01-27T10:25:55;16.27;;;7.90;;
85646;SDS011;76070;51.580;4.342;2024-01-27T10:31:13;20.77;;;8.23;;
85646;SDS011;76070;51.580;4.342;2024-01-27T10:33:50;21.68;;;8.10;;
85646;SDS011;76070;51.580;4.342;2024-01-27T10:36:08;16.52;;;9.25;;
85646;SDS011;76070;51.580;4.342;2024-01-27T10:38:39;24.98;;;8.00;;
85646;SDS011;76070;51.580;4.342;2024-01-27T10:41:02;19.12;;;7.83;;
85646;SDS011;76070;51.580;4.342;2024-01-27T10:43:30;20.32;;;8.63;;
85646;SDS011;76070;51.580;4.342;2024-01-27T10:45:58;15.83;;;7.50;;
85646;SDS011;76070;51.580;4.342;2024-01-27T10:48:25;25.88;;;6.95;;
85646;SDS011;76070;51.580;4.342;2024-01-27T10:50:52;24.40;;;8.35;;
85646;SDS011;76070;51.580;4.342;2024-01-27T10:53:22;15.25;;;7.05;;
85646;SDS011;76070;51.580;4.342;2024-01-27T10:55:46;22.42;;;6.37;;
85646;SDS011;76070;51.580;4.342;2024-01-27T10:58:13;15.05;;;4.87;;
85646;SDS011;76070;51.580;4.342;2024-01-27T11:00:41;17.95;;;5.28;;
85646;SDS011;76070;51.580;4.342;2024-01-27T11:03:08;17.35;;;5.62;;
85646;SDS011;76070;51.580;4.342;2024-01-27T11:05:36;23.52;;;5.47;;
85646;SDS011;76070;51.580;4.342;2024-01-27T11:08:04;19.20;;;5.40;;
85646;SDS011;76070;51.580;4.342;2024-01-27T11:10:31;15.23;;;5.42;;
85646;SDS011;76070;51.580;4.342;2024-01-27T11:13:00;16.23;;;5.30;;
85646;SDS011;76070;51.580;4.342;2024-01-27T11:15:26;19.60;;;4.97;;
85646;SDS011;76070;51.580;4.342;2024-01-27T11:17:56;21.12;;;7.25;;
85646;SDS011;76070;51.580;4.342;2024-01-27T11:20:21;14.90;;;4.25;;
85646;SDS011;76070;51.580;4.342;2024-01-27T11:26:01;18.30;;;5.50;;
85646;SDS011;76070;51.580;4.342;2024-01-27T11:28:25;27.15;;;5.20;;
85646;SDS011;76070;51.580;4.342;2024-01-27T11:30:48;27.58;;;6.50;;
85646;SDS011;76070;51.580;4.342;2024-01-27T11:33:14;12.93;;;4.72;;
85646;SDS011;76070;51.580;4.342;2024-01-27T11:35:41;15.72;;;5.28;;
85646;SDS011;76070;51.580;4.342;2024-01-27T11:38:07;11.45;;;4.28;;
85646;SDS011;76070;51.580;4.342;2024-01-27T11:40:43;14.38;;;4.80;;
85646;SDS011;76070;51.580;4.342;2024-01-27T11:43:02;21.93;;;4.62;;
85646;SDS011;76070;51.580;4.342;2024-01-27T11:45:28;14.23;;;4.62;;
85646;SDS011;76070;51.580;4.342;2024-01-27T11:47:55;17.80;;;4.70;;
85646;SDS011;76070;51.580;4.342;2024-01-27T11:50:22;24.90;;;6.25;;
85646;SDS011;76070;51.580;4.342;2024-01-27T11:52:49;20.65;;;6.53;;
85646;SDS011;76070;51.580;4.342;2024-01-27T11:55:15;19.25;;;7.15;;
85646;SDS011;76070;51.580;4.342;2024-01-27T11:57:46;22.82;;;6.28;;
85646;SDS011;76070;51.580;4.342;2024-01-27T12:03:01;11.88;;;4.58;;
85646;SDS011;76070;51.580;4.342;2024-01-27T12:05:28;11.70;;;6.22;;
85646;SDS011;76070;51.580;4.342;2024-01-27T12:07:55;15.00;;;6.40;;
85646;SDS011;76070;51.580;4.342;2024-01-27T12:10:22;16.50;;;6.45;;
85646;SDS011;76070;51.580;4.342;2024-01-27T12:12:48;17.07;;;5.65;;
85646;SDS011;76070;51.580;4.342;2024-01-27T12:15:14;14.73;;;5.45;;
85646;SDS011;76070;51.580;4.342;2024-01-27T12:17:41;14.53;;;5.50;;
85646;SDS011;76070;51.580;4.342;2024-01-27T12:20:14;21.35;;;6.45;;
85646;SDS011;76070;51.580;4.342;2024-01-27T12:22:36;22.42;;;6.20;;
85646;SDS011;76070;51.580;4.342;2024-01-27T12:25:09;21.02;;;5.53;;
85646;SDS011;76070;51.580;4.342;2024-01-27T12:27:36;18.60;;;8.05;;
85646;SDS011;76070;51.580;4.342;2024-01-27T12:30:03;13.10;;;5.20;;
85646;SDS011;76070;51.580;4.342;2024-01-27T12:32:30;25.05;;;4.83;;
85646;SDS011;76070;51.580;4.342;2024-01-27T12:34:57;18.45;;;5.58;;
85646;SDS011;76070;51.580;4.342;2024-01-27T12:37:25;13.90;;;4.70;;
85646;SDS011;76070;51.580;4.342;2024-01-27T12:39:52;13.03;;;4.45;;
85646;SDS011;76070;51.580;4.342;2024-01-27T12:42:18;9.75;;;4.55;;
85646;SDS011;76070;51.580;4.342;2024-01-27T12:44:45;19.82;;;4.62;;
85646;SDS011;76070;51.580;4.342;2024-01-27T12:47:11;27.62;;;4.95;;
85646;SDS011;76070;51.580;4.342;2024-01-27T12:49:39;13.98;;;3.47;;
85646;SDS011;76070;51.580;4.342;2024-01-27T12:52:06;18.37;;;4.78;;
85646;SDS011;76070;51.580;4.342;2024-01-27T12:54:33;12.68;;;4.67;;
85646;SDS011;76070;51.580;4.342;2024-01-27T12:56:59;20.52;;;5.15;;
85646;SDS011;76070;51.580;4.342;2024-01-27T12:59:27;16.40;;;5.35;;
85646;SDS011;76070;51.580;4.342;2024-01-27T13:01:54;17.37;;;5.75;;
85646;SDS011;76070;51.580;4.342;2024-01-27T13:04:20;14.70;;;4.55;;
85646;SDS011;76070;51.580;4.342;2024-01-27T13:06:48;15.95;;;5.45;;
85646;SDS011;76070;51.580;4.342;2024-01-27T13:09:14;12.88;;;4.33;;
85646;SDS011;76070;51.580;4.342;2024-01-27T13:11:41;19.50;;;4.42;;
85646;SDS011;76070;51.580;4.342;2024-01-27T13:14:08;14.78;;;5.10;;
85646;SDS011;76070;51.580;4.342;2024-01-27T13:16:35;19.42;;;4.95;;
85646;SDS011;76070;51.580;4.342;2024-01-27T13:19:02;11.80;;;4.00;;
85646;SDS011;76070;51.580;4.342;2024-01-27T13:24:24;16.23;;;4.47;;
85646;SDS011;76070;51.580;4.342;2024-01-27T13:26:51;13.72;;;3.83;;
85646;SDS011;76070;51.580;4.342;2024-01-27T13:29:23;20.88;;;4.80;;
85646;SDS011;76070;51.580;4.342;2024-01-27T13:31:51;16.12;;;6.17;;
85646;SDS011;76070;51.580;4.342;2024-01-27T13:34:29;13.93;;;4.78;;
85646;SDS011;76070;51.580;4.342;2024-01-27T13:36:57;16.37;;;5.70;;
85646;SDS011;76070;51.580;4.342;2024-01-27T13:39:25;11.75;;;4.17;;
85646;SDS011;76070;51.580;4.342;2024-01-27T13:41:51;20.45;;;6.28;;
85646;SDS011;76070;51.580;4.342;2024-01-27T13:44:18;17.98;;;5.42;;
85646;SDS011;76070;51.580;4.342;2024-01-27T13:46:44;14.03;;;4.50;;
85646;SDS011;76070;51.580;4.342;2024-01-27T13:49:11;19.95;;;5.42;;
85646;SDS011;76070;51.580;4.342;2024-01-27T13:51:37;19.55;;;5.10;;
85646;SDS011;76070;51.580;4.342;2024-01-27T13:54:04;20.43;;;5.58;;
85646;SDS011;76070;51.580;4.342;2024-01-27T13:56:32;18.55;;;5.65;;
85646;SDS011;76070;51.580;4.342;2024-01-27T13:58:58;17.57;;;5.03;;
85646;SDS011;76070;51.580;4.342;2024-01-27T14:01:25;15.75;;;5.08;;
85646;SDS011;76070;51.580;4.342;2024-01-27T14:03:51;21.57;;;5.75;;
85646;SDS011;76070;51.580;4.342;2024-01-27T14:06:18;12.20;;;5.95;;
85646;SDS011;76070;51.580;4.342;2024-01-27T14:08:44;13.38;;;5.12;;
85646;SDS011;76070;51.580;4.342;2024-01-27T14:11:10;21.60;;;5.20;;
85646;SDS011;76070;51.580;4.342;2024-01-27T14:13:37;22.50;;;6.33;;
85646;SDS011;76070;51.580;4.342;2024-01-27T14:16:04;20.88;;;8.30;;
85646;SDS011;76070;51.580;4.342;2024-01-27T14:18:30;20.60;;;5.80;;
85646;SDS011;76070;51.580;4.342;2024-01-27T14:20:57;32.40;;;7.80;;
85646;SDS011;76070;51.580;4.342;2024-01-27T14:23:23;30.20;;;5.17;;
85646;SDS011;76070;51.580;4.342;2024-01-27T14:25:49;19.65;;;5.70;;
85646;SDS011;76070;51.580;4.342;2024-01-27T14:28:16;22.52;;;6.28;;
85646;SDS011;76070;51.580;4.342;2024-01-27T14:30:42;21.55;;;5.80;;
85646;SDS011;76070;51.580;4.342;2024-01-27T14:33:10;14.98;;;5.20;;
85646;SDS011;76070;51.580;4.342;2024-01-27T14:35:36;19.65;;;4.03;;
85646;SDS011;76070;51.580;4.342;2024-01-27T14:38:04;13.95;;;4.70;;
85646;SDS011;76070;51.580;4.342;2024-01-27T14:40:32;24.77;;;5.85;;
85646;SDS011;76070;51.580;4.342;2024-01-27T14:42:59;17.95;;;4.60;;
85646;SDS011;76070;51.580;4.342;2024-01-27T14:45:25;17.77;;;5.33;;
85646;SDS011;76070;51.580;4.342;2024-01-27T14:47:52;29.52;;;6.15;;
85646;SDS011;76070;51.580;4.342;2024-01-27T14:50:19;20.57;;;4.53;;
85646;SDS011;76070;51.580;4.342;2024-01-27T14:52:46;21.37;;;6.67;;
85646;SDS011;76070;51.580;4.342;2024-01-27T14:55:12;11.93;;;5.80;;
85646;SDS011;76070;51.580;4.342;2024-01-27T14:57:41;17.42;;;6.17;;
85646;SDS011;76070;51.580;4.342;2024-01-27T15:00:07;15.55;;;4.70;;
85646;SDS011;76070;51.580;4.342;2024-01-27T15:02:34;20.48;;;5.03;;
85646;SDS011;76070;51.580;4.342;2024-01-27T15:05:01;20.88;;;4.37;;
85646;SDS011;76070;51.580;4.342;2024-01-27T15:07:28;12.55;;;5.25;;
85646;SDS011;76070;51.580;4.342;2024-01-27T15:09:56;28.77;;;7.65;;
85646;SDS011;76070;51.580;4.342;2024-01-27T15:12:22;24.45;;;5.03;;
85646;SDS011;76070;51.580;4.342;2024-01-27T15:14:51;17.95;;;4.70;;
85646;SDS011;76070;51.580;4.342;2024-01-27T15:17:18;15.43;;;4.80;;